sensor_id;sensor_type;location;lat;lon;timestamp;pressure;altitude;pressure_sealevel;temperature;humidity
67931;BME280;63902;52.000;5.954;2022-12-18T00:00:41;102510.31;;;-5.73;100.00
67931;BME280;63902;52.000;5.954;2022-12-18T00:01:42;102501.50;;;-5.77;100.00
67931;BME280;63902;52.000;5.954;2022-12-18T00:02:42;102498.84;;;-5.78;100.00
67931;BME280;63902;52.000;5.954;2022-12-18T00:03:43;102494.28;;;-5.82;100.00
67931;BME280;63902;52.000;5.954;2022-12-18T00:04:43;102501.16;;;-5.83;100.00
67931;BME280;63902;52.000;5.954;2022-12-18T00:05:47;102500.13;;;-5.87;100.00
67931;BME280;63902;52.000;5.954;2022-12-18T00:06:48;102495.06;;;-5.85;100.00
67931;BME280;63902;52.000;5.954;2022-12-18T00:07:49;102501.09;;;-5.85;100.00
67931;BME280;63902;52.000;5.954;2022-12-18T00:08:49;102497.53;;;-5.87;100.00
67931;BME280;63902;52.000;5.954;2022-12-18T00:09:49;102494.88;;;-5.88;100.00
67931;BME280;63902;52.000;5.954;2022-12-18T00:10:51;102491.34;;;-5.90;100.00
67931;BME280;63902;52.000;5.954;2022-12-18T00:11:52;102491.34;;;-5.90;100.00
67931;BME280;63902;52.000;5.954;2022-12-18T00:12:52;102491.25;;;-5.92;100.00
67931;BME280;63902;52.000;5.954;2022-12-18T00:13:54;102488.66;;;-5.92;100.00
67931;BME280;63902;52.000;5.954;2022-12-18T00:14:55;102487.66;;;-5.95;100.00
67931;BME280;63902;52.000;5.954;2022-12-18T00:15:55;102488.38;;;-5.98;100.00
67931;BME280;63902;52.000;5.954;2022-12-18T00:17:01;102490.78;;;-6.01;100.00
67931;BME280;63902;52.000;5.954;2022-12-18T00:18:02;102492.34;;;-6.04;100.00
67931;BME280;63902;52.000;5.954;2022-12-18T00:19:03;102487.06;;;-6.06;100.00
67931;BME280;63902;52.000;5.954;2022-12-18T00:20:05;102490.53;;;-6.05;100.00
67931;BME280;63902;52.000;5.954;2022-12-18T00:21:08;102490.38;;;-6.09;100.00
67931;BME280;63902;52.000;5.954;2022-12-18T00:22:08;102487.78;;;-6.09;100.00
67931;BME280;63902;52.000;5.954;2022-12-18T00:23:09;102466.34;;;-6.24;100.00
67931;BME280;63902;52.000;5.954;2022-12-18T00:24:10;102488.63;;;-6.10;100.00
67931;BME280;63902;52.000;5.954;2022-12-18T00:25:11;102485.06;;;-6.12;100.00
67931;BME280;63902;52.000;5.954;2022-12-18T00:26:15;102488.34;;;-6.14;100.00
67931;BME280;63902;52.000;5.954;2022-12-18T00:27:16;102495.22;;;-6.15;100.00
67931;BME280;63902;52.000;5.954;2022-12-18T00:28:16;102488.19;;;-6.17;100.00
67931;BME280;63902;52.000;5.954;2022-12-18T00:29:17;102486.44;;;-6.18;100.00
67931;BME280;63902;52.000;5.954;2022-12-18T00:30:18;102483.69;;;-6.21;100.00
67931;BME280;63902;52.000;5.954;2022-12-18T00:31:21;102484.56;;;-6.21;100.00
67931;BME280;63902;52.000;5.954;2022-12-18T00:32:21;102488.69;;;-6.24;100.00
67931;BME280;63902;52.000;5.954;2022-12-18T00:33:22;102470.19;;;-6.32;100.00
67931;BME280;63902;52.000;5.954;2022-12-18T00:34:22;102482.59;;;-6.25;100.00
67931;BME280;63902;52.000;5.954;2022-12-18T00:35:23;102481.66;;;-6.27;100.00
67931;BME280;63902;52.000;5.954;2022-12-18T00:36:25;102475.59;;;-6.27;100.00
67931;BME280;63902;52.000;5.954;2022-12-18T00:37:26;102467.78;;;-6.29;100.00
67931;BME280;63902;52.000;5.954;2022-12-18T00:38:27;102464.22;;;-6.31;100.00
67931;BME280;63902;52.000;5.954;2022-12-18T00:39:27;102471.16;;;-6.30;100.00
67931;BME280;63902;52.000;5.954;2022-12-18T00:40:27;102471.94;;;-6.31;100.00
67931;BME280;63902;52.000;5.954;2022-12-18T00:41:30;102471.94;;;-6.31;100.00
67931;BME280;63902;52.000;5.954;2022-12-18T00:42:31;102470.97;;;-6.33;100.00
67931;BME280;63902;52.000;5.954;2022-12-18T00:43:34;102462.13;;;-6.38;100.00
67931;BME280;63902;52.000;5.954;2022-12-18T00:44:34;102469.03;;;-6.37;100.00
67931;BME280;63902;52.000;5.954;2022-12-18T00:45:35;102476.63;;;-6.40;100.00
67931;BME280;63902;52.000;5.954;2022-12-18T00:46:35;102469.50;;;-6.44;100.00
67931;BME280;63902;52.000;5.954;2022-12-18T00:47:36;102475.66;;;-6.42;100.00
67931;BME280;63902;52.000;5.954;2022-12-18T00:48:36;102475.66;;;-6.42;100.00
67931;BME280;63902;52.000;5.954;2022-12-18T00:49:37;102471.31;;;-6.43;100.00
67931;BME280;63902;52.000;5.954;2022-12-18T00:50:37;102473.78;;;-6.45;100.00
67931;BME280;63902;52.000;5.954;2022-12-18T00:51:38;102472.03;;;-6.46;100.00
67931;BME280;63902;52.000;5.954;2022-12-18T00:52:38;102480.53;;;-6.47;100.00
67931;BME280;63902;52.000;5.954;2022-12-18T00:53:39;102482.25;;;-6.47;100.00
67931;BME280;63902;52.000;5.954;2022-12-18T00:54:39;102483.06;;;-6.48;100.00
67931;BME280;63902;52.000;5.954;2022-12-18T00:55:40;102479.50;;;-6.50;100.00
67931;BME280;63902;52.000;5.954;2022-12-18T00:56:42;102488.94;;;-6.51;100.00
67931;BME280;63902;52.000;5.954;2022-12-18T00:57:43;102480.75;;;-6.59;100.00
67931;BME280;63902;52.000;5.954;2022-12-18T00:58:44;102482.41;;;-6.61;100.00
67931;BME280;63902;52.000;5.954;2022-12-18T00:59:44;102492.16;;;-6.55;100.00
67931;BME280;63902;52.000;5.954;2022-12-18T01:00:44;102491.25;;;-6.56;100.00
67931;BME280;63902;52.000;5.954;2022-12-18T01:01:45;102490.31;;;-6.58;100.00
67931;BME280;63902;52.000;5.954;2022-12-18T01:02:46;102490.19;;;-6.59;100.00
67931;BME280;63902;52.000;5.954;2022-12-18T01:03:47;102483.28;;;-6.60;100.00
67931;BME280;63902;52.000;5.954;2022-12-18T01:04:47;102483.19;;;-6.62;100.00
67931;BME280;63902;52.000;5.954;2022-12-18T01:05:48;102489.16;;;-6.63;100.00
67931;BME280;63902;52.000;5.954;2022-12-18T01:06:48;102480.44;;;-6.65;100.00
67931;BME280;63902;52.000;5.954;2022-12-18T01:07:48;102479.63;;;-6.64;100.00
67931;BME280;63902;52.000;5.954;2022-12-18T01:08:49;102480.44;;;-6.65;100.00
67931;BME280;63902;52.000;5.954;2022-12-18T01:09:49;102477.78;;;-6.66;100.00
67931;BME280;63902;52.000;5.954;2022-12-18T01:10:50;102479.44;;;-6.67;100.00
67931;BME280;63902;52.000;5.954;2022-12-18T01:11:52;102487.03;;;-6.70;100.00
67931;BME280;63902;52.000;5.954;2022-12-18T01:12:52;102487.03;;;-6.70;100.00
67931;BME280;63902;52.000;5.954;2022-12-18T01:13:53;102486.13;;;-6.70;100.00
67931;BME280;63902;52.000;5.954;2022-12-18T01:14:54;102481.78;;;-6.71;100.00
67931;BME280;63902;52.000;5.954;2022-12-18T01:15:54;102481.88;;;-6.70;100.00
67931;BME280;63902;52.000;5.954;2022-12-18T01:16:55;102478.34;;;-6.72;100.00
67931;BME280;63902;52.000;5.954;2022-12-18T01:17:55;102470.38;;;-6.75;100.00
67931;BME280;63902;52.000;5.954;2022-12-18T01:18:56;102467.81;;;-6.75;100.00
67931;BME280;63902;52.000;5.954;2022-12-18T01:19:56;102465.16;;;-6.77;100.00
67931;BME280;63902;52.000;5.954;2022-12-18T01:20:57;102466.88;;;-6.77;100.00
67931;BME280;63902;52.000;5.954;2022-12-18T01:21:57;102464.28;;;-6.77;100.00
67931;BME280;63902;52.000;5.954;2022-12-18T01:22:58;102464.91;;;-6.81;100.00
67931;BME280;63902;52.000;5.954;2022-12-18T01:23:58;102462.31;;;-6.81;100.00
67931;BME280;63902;52.000;5.954;2022-12-18T01:24:59;102460.56;;;-6.82;100.00
67931;BME280;63902;52.000;5.954;2022-12-18T01:26:04;102460.63;;;-6.81;100.00
67931;BME280;63902;52.000;5.954;2022-12-18T01:27:06;102458.84;;;-6.82;100.00
67931;BME280;63902;52.000;5.954;2022-12-18T01:28:06;102456.09;;;-6.85;100.00
67931;BME280;63902;52.000;5.954;2022-12-18T01:29:07;102452.31;;;-6.91;100.00
67931;BME280;63902;52.000;5.954;2022-12-18T01:30:08;102462.69;;;-6.90;100.00
67931;BME280;63902;52.000;5.954;2022-12-18T01:31:11;102466.97;;;-6.90;100.00
67931;BME280;63902;52.000;5.954;2022-12-18T01:32:12;102456.31;;;-6.96;100.00
67931;BME280;63902;52.000;5.954;2022-12-18T01:33:12;102462.53;;;-6.93;100.00
67931;BME280;63902;52.000;5.954;2022-12-18T01:34:13;102468.38;;;-6.95;100.00
67931;BME280;63902;52.000;5.954;2022-12-18T01:35:13;102463.06;;;-6.99;100.00
67931;BME280;63902;52.000;5.954;2022-12-18T01:36:15;102462.78;;;-7.03;100.00
67931;BME280;63902;52.000;5.954;2022-12-18T01:37:16;102476.84;;;-6.98;100.00
67931;BME280;63902;52.000;5.954;2022-12-18T01:38:16;102474.25;;;-6.98;100.00
67931;BME280;63902;52.000;5.954;2022-12-18T01:39:17;102475.97;;;-6.99;100.00
67931;BME280;63902;52.000;5.954;2022-12-18T01:40:18;102472.56;;;-6.98;100.00
67931;BME280;63902;52.000;5.954;2022-12-18T01:41:23;102478.53;;;-6.99;100.00
67931;BME280;63902;52.000;5.954;2022-12-18T01:42:25;102471.50;;;-7.01;100.00
67931;BME280;63902;52.000;5.954;2022-12-18T01:43:44;102480.94;;;-7.02;100.00
67931;BME280;63902;52.000;5.954;2022-12-18T01:44:57;102481.75;;;-7.03;100.00
67931;BME280;63902;52.000;5.954;2022-12-18T01:45:59;102488.69;;;-7.02;100.00
67931;BME280;63902;52.000;5.954;2022-12-18T01:46:59;102501.66;;;-7.00;100.00
67931;BME280;63902;52.000;5.954;2022-12-18T01:48:02;102481.56;;;-7.06;100.00
67931;BME280;63902;52.000;5.954;2022-12-18T01:49:03;102488.69;;;-7.02;100.00
67931;BME280;63902;52.000;5.954;2022-12-18T01:50:07;102491.25;;;-7.02;100.00
67931;BME280;63902;52.000;5.954;2022-12-18T01:51:09;102490.38;;;-7.02;100.00
67931;BME280;63902;52.000;5.954;2022-12-18T01:52:10;102483.34;;;-7.05;100.00
67931;BME280;63902;52.000;5.954;2022-12-18T01:53:14;102471.06;;;-7.09;100.00
67931;BME280;63902;52.000;5.954;2022-12-18T01:54:15;102477.22;;;-7.07;100.00
67931;BME280;63902;52.000;5.954;2022-12-18T01:55:18;102483.19;;;-7.08;100.00
67931;BME280;63902;52.000;5.954;2022-12-18T01:56:20;102476.22;;;-7.09;100.00
67931;BME280;63902;52.000;5.954;2022-12-18T01:57:22;102485.66;;;-7.09;100.00
67931;BME280;63902;52.000;5.954;2022-12-18T01:58:29;102480.44;;;-7.11;100.00
67931;BME280;63902;52.000;5.954;2022-12-18T01:59:33;102478.63;;;-7.12;100.00
67931;BME280;63902;52.000;5.954;2022-12-18T02:00:34;102469.84;;;-7.15;100.00
67931;BME280;63902;52.000;5.954;2022-12-18T02:01:36;102464.50;;;-7.18;100.00
67931;BME280;63902;52.000;5.954;2022-12-18T02:02:37;102477.69;;;-7.14;100.00
67931;BME280;63902;52.000;5.954;2022-12-18T02:03:41;102477.69;;;-7.14;100.00
67931;BME280;63902;52.000;5.954;2022-12-18T02:04:41;102476.59;;;-7.17;100.00
67931;BME280;63902;52.000;5.954;2022-12-18T02:05:44;102481.84;;;-7.16;100.00
67931;BME280;63902;52.000;5.954;2022-12-18T02:06:48;102479.88;;;-7.20;100.00
67931;BME280;63902;52.000;5.954;2022-12-18T02:08:00;102488.41;;;-7.21;100.00
67931;BME280;63902;52.000;5.954;2022-12-18T02:09:08;102490.91;;;-7.23;100.00
67931;BME280;63902;52.000;5.954;2022-12-18T02:10:14;102487.38;;;-7.25;100.00
67931;BME280;63902;52.000;5.954;2022-12-18T02:11:22;102489.22;;;-7.22;100.00
67931;BME280;63902;52.000;5.954;2022-12-18T02:12:27;102494.38;;;-7.22;100.00
67931;BME280;63902;52.000;5.954;2022-12-18T02:13:41;102483.09;;;-7.24;100.00
67931;BME280;63902;52.000;5.954;2022-12-18T02:14:52;102486.47;;;-7.25;100.00
67931;BME280;63902;52.000;5.954;2022-12-18T02:16:00;102492.53;;;-7.25;100.00
67931;BME280;63902;52.000;5.954;2022-12-18T02:17:06;102490.00;;;-7.23;100.00
67931;BME280;63902;52.000;5.954;2022-12-18T02:18:12;102488.31;;;-7.23;100.00
67931;BME280;63902;52.000;5.954;2022-12-18T02:19:27;102486.47;;;-7.25;100.00
67931;BME280;63902;52.000;5.954;2022-12-18T02:20:34;102484.69;;;-7.26;100.00
67931;BME280;63902;52.000;5.954;2022-12-18T02:21:43;102483.09;;;-7.24;100.00
67931;BME280;63902;52.000;5.954;2022-12-18T02:22:53;102483.91;;;-7.25;100.00
67931;BME280;63902;52.000;5.954;2022-12-18T02:23:59;102484.69;;;-7.26;100.00
67931;BME280;63902;52.000;5.954;2022-12-18T02:25:14;102481.22;;;-7.27;100.00
67931;BME280;63902;52.000;5.954;2022-12-18T02:26:23;102474.13;;;-7.31;100.00
67931;BME280;63902;52.000;5.954;2022-12-18T02:27:27;102472.50;;;-7.29;100.00
67931;BME280;63902;52.000;5.954;2022-12-18T02:28:34;102476.78;;;-7.29;100.00
67931;BME280;63902;52.000;5.954;2022-12-18T02:29:39;102481.75;;;-7.32;100.00
67931;BME280;63902;52.000;5.954;2022-12-18T02:30:42;102475.00;;;-7.30;100.00
67931;BME280;63902;52.000;5.954;2022-12-18T02:31:47;102489.59;;;-7.31;100.00
67931;BME280;63902;52.000;5.954;2022-12-18T02:32:52;102481.59;;;-7.35;100.00
67931;BME280;63902;52.000;5.954;2022-12-18T02:33:55;102485.69;;;-7.39;100.00
67931;BME280;63902;52.000;5.954;2022-12-18T02:34:57;102482.09;;;-7.41;100.00
67931;BME280;63902;52.000;5.954;2022-12-18T02:36:00;102483.00;;;-7.40;100.00
67931;BME280;63902;52.000;5.954;2022-12-18T02:37:04;102488.06;;;-7.42;100.00
67931;BME280;63902;52.000;5.954;2022-12-18T02:38:06;102488.84;;;-7.43;100.00
67931;BME280;63902;52.000;5.954;2022-12-18T02:39:09;102482.72;;;-7.45;100.00
67931;BME280;63902;52.000;5.954;2022-12-18T02:40:12;102484.41;;;-7.46;100.00
67931;BME280;63902;52.000;5.954;2022-12-18T02:41:14;102483.53;;;-7.46;100.00
67931;BME280;63902;52.000;5.954;2022-12-18T02:42:18;102466.72;;;-7.54;100.00
67931;BME280;63902;52.000;5.954;2022-12-18T02:43:19;102479.88;;;-7.50;100.00
67931;BME280;63902;52.000;5.954;2022-12-18T02:44:19;102475.44;;;-7.52;100.00
67931;BME280;63902;52.000;5.954;2022-12-18T02:45:20;102479.78;;;-7.51;100.00
67931;BME280;63902;52.000;5.954;2022-12-18T02:46:27;102478.91;;;-7.52;100.00
67931;BME280;63902;52.000;5.954;2022-12-18T02:47:31;102477.03;;;-7.54;100.00
67931;BME280;63902;52.000;5.954;2022-12-18T02:48:34;102477.91;;;-7.54;100.00
67931;BME280;63902;52.000;5.954;2022-12-18T02:49:41;102473.56;;;-7.55;100.00
67931;BME280;63902;52.000;5.954;2022-12-18T02:50:48;102474.44;;;-7.54;100.00
67931;BME280;63902;52.000;5.954;2022-12-18T02:51:53;102473.38;;;-7.58;100.00
67931;BME280;63902;52.000;5.954;2022-12-18T02:53:03;102467.25;;;-7.60;100.00
67931;BME280;63902;52.000;5.954;2022-12-18T02:54:09;102471.59;;;-7.59;100.00
67931;BME280;63902;52.000;5.954;2022-12-18T02:55:18;102480.31;;;-7.57;100.00
67931;BME280;63902;52.000;5.954;2022-12-18T02:56:28;102468.31;;;-7.56;100.00
67931;BME280;63902;52.000;5.954;2022-12-18T02:57:34;102472.56;;;-7.57;100.00
67931;BME280;63902;52.000;5.954;2022-12-18T02:58:42;102469.00;;;-7.59;100.00
67931;BME280;63902;52.000;5.954;2022-12-18T02:59:54;102475.97;;;-7.58;100.00
67931;BME280;63902;52.000;5.954;2022-12-18T03:01:01;102471.50;;;-7.60;100.00
67931;BME280;63902;52.000;5.954;2022-12-18T03:02:08;102481.00;;;-7.59;100.00
67931;BME280;63902;52.000;5.954;2022-12-18T03:03:19;102474.09;;;-7.60;100.00
67931;BME280;63902;52.000;5.954;2022-12-18T03:04:27;102469.75;;;-7.61;100.00
67931;BME280;63902;52.000;5.954;2022-12-18T03:05:31;102474.09;;;-7.60;100.00
67931;BME280;63902;52.000;5.954;2022-12-18T03:06:36;102480.94;;;-7.61;100.00
67931;BME280;63902;52.000;5.954;2022-12-18T03:07:42;102468.84;;;-7.62;100.00
67931;BME280;63902;52.000;5.954;2022-12-18T03:08:47;102470.63;;;-7.61;100.00
67931;BME280;63902;52.000;5.954;2022-12-18T03:09:50;102464.66;;;-7.60;100.00
67931;BME280;63902;52.000;5.954;2022-12-18T03:10:56;102466.25;;;-7.62;100.00
67931;BME280;63902;52.000;5.954;2022-12-18T03:12:13;102464.50;;;-7.63;100.00
67931;BME280;63902;52.000;5.954;2022-12-18T03:13:20;102455.00;;;-7.64;100.00
67931;BME280;63902;52.000;5.954;2022-12-18T03:14:24;102465.47;;;-7.61;100.00
67931;BME280;63902;52.000;5.954;2022-12-18T03:15:29;102460.22;;;-7.62;100.00
67931;BME280;63902;52.000;5.954;2022-12-18T03:16:31;102459.34;;;-7.63;100.00
67931;BME280;63902;52.000;5.954;2022-12-18T03:17:33;102458.53;;;-7.62;100.00
67931;BME280;63902;52.000;5.954;2022-12-18T03:18:36;102460.22;;;-7.62;100.00
67931;BME280;63902;52.000;5.954;2022-12-18T03:19:39;102457.41;;;-7.67;100.00
67931;BME280;63902;52.000;5.954;2022-12-18T03:20:43;102454.72;;;-7.69;100.00
67931;BME280;63902;52.000;5.954;2022-12-18T03:21:47;102465.91;;;-7.68;100.00
67931;BME280;63902;52.000;5.954;2022-12-18T03:22:53;102462.34;;;-7.70;100.00
67931;BME280;63902;52.000;5.954;2022-12-18T03:23:56;102464.13;;;-7.69;100.00
67931;BME280;63902;52.000;5.954;2022-12-18T03:24:58;102465.72;;;-7.71;100.00
67931;BME280;63902;52.000;5.954;2022-12-18T03:26:04;102460.50;;;-7.73;100.00
67931;BME280;63902;52.000;5.954;2022-12-18T03:27:08;102456.94;;;-7.75;100.00
67931;BME280;63902;52.000;5.954;2022-12-18T03:28:13;102456.81;;;-7.76;100.00
67931;BME280;63902;52.000;5.954;2022-12-18T03:29:18;102460.22;;;-7.77;100.00
67931;BME280;63902;52.000;5.954;2022-12-18T03:30:20;102458.34;;;-7.80;100.00
67931;BME280;63902;52.000;5.954;2022-12-18T03:31:23;102451.59;;;-7.78;100.00
67931;BME280;63902;52.000;5.954;2022-12-18T03:32:25;102453.28;;;-7.78;100.00
67931;BME280;63902;52.000;5.954;2022-12-18T03:33:30;102442.78;;;-7.81;100.00
67931;BME280;63902;52.000;5.954;2022-12-18T03:34:34;102437.63;;;-7.81;100.00
67931;BME280;63902;52.000;5.954;2022-12-18T03:35:39;102445.56;;;-7.78;100.00
67931;BME280;63902;52.000;5.954;2022-12-18T03:36:40;102442.06;;;-7.79;100.00
67931;BME280;63902;52.000;5.954;2022-12-18T03:37:40;102444.66;;;-7.79;100.00
67931;BME280;63902;52.000;5.954;2022-12-18T03:38:41;102447.34;;;-7.77;100.00
67931;BME280;63902;52.000;5.954;2022-12-18T03:39:41;102436.16;;;-7.78;100.00
67931;BME280;63902;52.000;5.954;2022-12-18T03:40:48;102441.47;;;-7.75;100.00
67931;BME280;63902;52.000;5.954;2022-12-18T03:41:55;102438.00;;;-7.75;100.00
67931;BME280;63902;52.000;5.954;2022-12-18T03:43:02;102435.34;;;-7.77;100.00
67931;BME280;63902;52.000;5.954;2022-12-18T03:44:11;102434.63;;;-7.74;100.00
67931;BME280;63902;52.000;5.954;2022-12-18T03:45:20;102438.91;;;-7.75;100.00
67931;BME280;63902;52.000;5.954;2022-12-18T03:46:26;102434.63;;;-7.74;100.00
67931;BME280;63902;52.000;5.954;2022-12-18T03:47:33;102431.25;;;-7.73;100.00
67931;BME280;63902;52.000;5.954;2022-12-18T03:48:41;102438.97;;;-7.73;100.00
67931;BME280;63902;52.000;5.954;2022-12-18T03:49:47;102432.16;;;-7.73;100.00
67931;BME280;63902;52.000;5.954;2022-12-18T03:50:53;102422.56;;;-7.75;100.00
67931;BME280;63902;52.000;5.954;2022-12-18T03:52:00;102431.25;;;-7.73;100.00
67931;BME280;63902;52.000;5.954;2022-12-18T03:53:09;102431.41;;;-7.70;100.00
67931;BME280;63902;52.000;5.954;2022-12-18T03:54:15;102426.09;;;-7.73;100.00
67931;BME280;63902;52.000;5.954;2022-12-18T03:55:17;102438.19;;;-7.72;100.00
67931;BME280;63902;52.000;5.954;2022-12-18T03:56:22;102430.38;;;-7.74;100.00
67931;BME280;63902;52.000;5.954;2022-12-18T03:57:28;102427.59;;;-7.77;100.00
67931;BME280;63902;52.000;5.954;2022-12-18T03:58:32;102436.41;;;-7.73;100.00
67931;BME280;63902;52.000;5.954;2022-12-18T03:59:35;102434.63;;;-7.74;100.00
67931;BME280;63902;52.000;5.954;2022-12-18T04:00:38;102430.13;;;-7.78;100.00
67931;BME280;63902;52.000;5.954;2022-12-18T04:01:41;102426.53;;;-7.80;100.00
67931;BME280;63902;52.000;5.954;2022-12-18T04:02:46;102423.16;;;-7.79;100.00
67931;BME280;63902;52.000;5.954;2022-12-18T04:03:49;102423.97;;;-7.80;100.00
67931;BME280;63902;52.000;5.954;2022-12-18T04:04:52;102426.72;;;-7.77;100.00
67931;BME280;63902;52.000;5.954;2022-12-18T04:05:54;102432.69;;;-7.78;100.00
67931;BME280;63902;52.000;5.954;2022-12-18T04:06:56;102423.28;;;-7.78;100.00
67931;BME280;63902;52.000;5.954;2022-12-18T04:07:57;102417.13;;;-7.80;100.00
67931;BME280;63902;52.000;5.954;2022-12-18T04:08:58;102423.34;;;-7.76;100.00
67931;BME280;63902;52.000;5.954;2022-12-18T04:10:01;102427.91;;;-7.72;100.00
67931;BME280;63902;52.000;5.954;2022-12-18T04:11:02;102427.09;;;-7.71;100.00
67931;BME280;63902;52.000;5.954;2022-12-18T04:12:03;102423.63;;;-7.72;100.00
67931;BME280;63902;52.000;5.954;2022-12-18T04:13:03;102414.91;;;-7.74;100.00
67931;BME280;63902;52.000;5.954;2022-12-18T04:14:04;102422.91;;;-7.69;100.00
67931;BME280;63902;52.000;5.954;2022-12-18T04:15:05;102427.25;;;-7.68;100.00
67931;BME280;63902;52.000;5.954;2022-12-18T04:16:08;102426.38;;;-7.69;100.00
67931;BME280;63902;52.000;5.954;2022-12-18T04:17:08;102431.63;;;-7.67;100.00
67931;BME280;63902;52.000;5.954;2022-12-18T04:18:09;102424.69;;;-7.68;100.00
67931;BME280;63902;52.000;5.954;2022-12-18T04:19:09;102431.41;;;-7.70;100.00
67931;BME280;63902;52.000;5.954;2022-12-18T04:20:10;102424.50;;;-7.71;100.00
67931;BME280;63902;52.000;5.954;2022-12-18T04:21:10;102432.41;;;-7.68;100.00
67931;BME280;63902;52.000;5.954;2022-12-18T04:22:11;102422.91;;;-7.69;100.00
67931;BME280;63902;52.000;5.954;2022-12-18T04:23:11;102423.81;;;-7.69;100.00
67931;BME280;63902;52.000;5.954;2022-12-18T04:24:12;102418.47;;;-7.72;100.00
67931;BME280;63902;52.000;5.954;2022-12-18T04:25:13;102417.59;;;-7.72;100.00
67931;BME280;63902;52.000;5.954;2022-12-18T04:26:13;102414.03;;;-7.74;100.00
67931;BME280;63902;52.000;5.954;2022-12-18T04:27:14;102417.59;;;-7.72;100.00
67931;BME280;63902;52.000;5.954;2022-12-18T04:28:14;102414.19;;;-7.71;100.00
67931;BME280;63902;52.000;5.954;2022-12-18T04:29:15;102418.66;;;-7.69;100.00
67931;BME280;63902;52.000;5.954;2022-12-18T04:30:15;102414.38;;;-7.68;100.00
67931;BME280;63902;52.000;5.954;2022-12-18T04:31:17;102412.78;;;-7.66;100.00
67931;BME280;63902;52.000;5.954;2022-12-18T04:32:18;102403.00;;;-7.72;100.00
67931;BME280;63902;52.000;5.954;2022-12-18T04:33:18;102402.13;;;-7.72;100.00
67931;BME280;63902;52.000;5.954;2022-12-18T04:34:19;102405.94;;;-7.66;100.00
67931;BME280;63902;52.000;5.954;2022-12-18T04:35:20;102409.41;;;-7.65;100.00
67931;BME280;63902;52.000;5.954;2022-12-18T04:36:20;102411.97;;;-7.65;100.00
67931;BME280;63902;52.000;5.954;2022-12-18T04:37:21;102410.28;;;-7.65;100.00
67931;BME280;63902;52.000;5.954;2022-12-18T04:38:21;102405.06;;;-7.66;100.00
67931;BME280;63902;52.000;5.954;2022-12-18T04:39:21;102413.78;;;-7.64;100.00
67931;BME280;63902;52.000;5.954;2022-12-18T04:40:22;102405.06;;;-7.66;100.00
67931;BME280;63902;52.000;5.954;2022-12-18T04:41:22;102406.81;;;-7.65;100.00
67931;BME280;63902;52.000;5.954;2022-12-18T04:42:23;102397.88;;;-7.72;100.00
67931;BME280;63902;52.000;5.954;2022-12-18T04:43:23;102399.09;;;-7.65;100.00
67931;BME280;63902;52.000;5.954;2022-12-18T04:44:24;102402.47;;;-7.66;100.00
67931;BME280;63902;52.000;5.954;2022-12-18T04:45:24;102400.63;;;-7.69;100.00
67931;BME280;63902;52.000;5.954;2022-12-18T04:46:26;102402.47;;;-7.66;100.00
67931;BME280;63902;52.000;5.954;2022-12-18T04:47:27;102399.03;;;-7.67;100.00
67931;BME280;63902;52.000;5.954;2022-12-18T04:48:27;102399.03;;;-7.67;100.00
67931;BME280;63902;52.000;5.954;2022-12-18T04:49:28;102408.63;;;-7.64;100.00
67931;BME280;63902;52.000;5.954;2022-12-18T04:50:28;102414.66;;;-7.63;100.00
67931;BME280;63902;52.000;5.954;2022-12-18T04:51:29;102412.25;;;-7.60;100.00
67931;BME280;63902;52.000;5.954;2022-12-18T04:52:29;102411.38;;;-7.61;100.00
67931;BME280;63902;52.000;5.954;2022-12-18T04:53:30;102420.06;;;-7.59;100.00
67931;BME280;63902;52.000;5.954;2022-12-18T04:54:31;102420.97;;;-7.58;100.00
67931;BME280;63902;52.000;5.954;2022-12-18T04:55:32;102420.06;;;-7.59;100.00
67931;BME280;63902;52.000;5.954;2022-12-18T04:56:32;102416.53;;;-7.61;100.00
67931;BME280;63902;52.000;5.954;2022-12-18T04:57:32;102405.94;;;-7.66;100.00
67931;BME280;63902;52.000;5.954;2022-12-18T04:58:33;102416.34;;;-7.64;100.00
67931;BME280;63902;52.000;5.954;2022-12-18T04:59:33;102410.03;;;-7.69;100.00
67931;BME280;63902;52.000;5.954;2022-12-18T05:00:34;102407.47;;;-7.69;100.00
67931;BME280;63902;52.000;5.954;2022-12-18T05:01:40;102410.22;;;-7.66;100.00
67931;BME280;63902;52.000;5.954;2022-12-18T05:02:41;102411.97;;;-7.65;100.00
67931;BME280;63902;52.000;5.954;2022-12-18T05:03:43;102404.25;;;-7.65;100.00
67931;BME280;63902;52.000;5.954;2022-12-18T05:04:44;102406.22;;;-7.61;100.00
67931;BME280;63902;52.000;5.954;2022-12-18T05:05:45;102408.88;;;-7.59;100.00
67931;BME280;63902;52.000;5.954;2022-12-18T05:06:49;102411.19;;;-7.64;100.00
67931;BME280;63902;52.000;5.954;2022-12-18T05:07:49;102411.19;;;-7.64;100.00
67931;BME280;63902;52.000;5.954;2022-12-18T05:08:50;102411.19;;;-7.64;100.00
67931;BME280;63902;52.000;5.954;2022-12-18T05:09:50;102408.44;;;-7.67;100.00
67931;BME280;63902;52.000;5.954;2022-12-18T05:10:58;102417.94;;;-7.66;100.00
67931;BME280;63902;52.000;5.954;2022-12-18T05:11:59;102413.50;;;-7.69;100.00
67931;BME280;63902;52.000;5.954;2022-12-18T05:12:59;102410.22;;;-7.66;100.00
67931;BME280;63902;52.000;5.954;2022-12-18T05:14:00;102409.22;;;-7.68;100.00
67931;BME280;63902;52.000;5.954;2022-12-18T05:15:04;102423.16;;;-7.65;100.00
67931;BME280;63902;52.000;5.954;2022-12-18T05:16:06;102422.38;;;-7.63;100.00
67931;BME280;63902;52.000;5.954;2022-12-18T05:17:08;102436.03;;;-7.65;100.00
67931;BME280;63902;52.000;5.954;2022-12-18T05:18:08;102430.72;;;-7.68;100.00
67931;BME280;63902;52.000;5.954;2022-12-18T05:19:09;102435.16;;;-7.65;100.00
67931;BME280;63902;52.000;5.954;2022-12-18T05:20:10;102439.44;;;-7.66;100.00
67931;BME280;63902;52.000;5.954;2022-12-18T05:21:10;102437.66;;;-7.67;100.00
67931;BME280;63902;52.000;5.954;2022-12-18T05:22:11;102439.97;;;-7.71;100.00
67931;BME280;63902;52.000;5.954;2022-12-18T05:23:12;102437.38;;;-7.71;100.00
67931;BME280;63902;52.000;5.954;2022-12-18T05:24:12;102434.63;;;-7.74;100.00